createdAt,value
2019-06-26T00:00:11.733Z,25.25
2019-06-26T00:02:41.128Z,35.30
2019-06-26T00:05:11.027Z,22.40
2019-06-26T00:07:40.332Z,21.30
2019-06-26T00:10:10.225Z,23.32
2019-06-26T00:12:39.566Z,20.23
2019-06-26T00:15:09.153Z,18.12
2019-06-26T00:17:39.241Z,22.35
2019-06-26T00:20:09.004Z,24.75
2019-06-26T00:22:38.472Z,21.95
2019-06-26T00:25:08.030Z,27.70
2019-06-26T00:27:37.399Z,34.18
2019-06-26T00:30:07.769Z,26.60
2019-06-26T00:32:37.071Z,27.87
2019-06-26T00:35:06.716Z,30.30
2019-06-26T00:37:36.019Z,23.65
2019-06-26T00:40:06.685Z,24.43
2019-06-26T00:42:36.151Z,30.68
2019-06-26T00:45:07.041Z,30.15
2019-06-26T00:47:36.409Z,27.22
2019-06-26T00:50:07.737Z,25.45
2019-06-26T00:52:37.194Z,25.70
2019-06-26T00:55:06.911Z,23.60
2019-06-26T00:57:36.307Z,23.57
2019-06-26T01:00:09.705Z,25.70
2019-06-26T01:02:39.546Z,26.40
2019-06-26T01:05:11.445Z,28.17
2019-06-26T01:07:40.831Z,28.35
2019-06-26T01:10:12.241Z,29.80
2019-06-26T01:12:41.607Z,27.27
2019-06-26T01:15:13.040Z,25.90
2019-06-26T01:17:42.381Z,27.35
2019-06-26T01:20:12.217Z,26.02
2019-06-26T01:22:41.532Z,26.27
2019-06-26T01:25:11.289Z,29.90
2019-06-26T01:27:40.656Z,27.17
2019-06-26T01:30:10.695Z,27.32
2019-06-26T01:32:40.011Z,30.88
2019-06-26T01:35:10.447Z,34.23
2019-06-26T01:37:39.788Z,30.65
2019-06-26T01:40:09.697Z,31.70
2019-06-26T01:42:40.052Z,34.53
2019-06-26T01:45:09.819Z,31.87
2019-06-26T01:47:39.196Z,31.05
2019-06-26T01:50:08.855Z,30.55
2019-06-26T01:52:38.192Z,31.55
2019-06-26T01:55:07.853Z,32.58
2019-06-26T01:57:37.174Z,30.88
2019-06-26T02:00:09.064Z,32.05
2019-06-26T02:02:38.705Z,35.35
2019-06-26T02:05:08.455Z,34.83
2019-06-26T02:07:37.756Z,33.67
2019-06-26T02:10:08.724Z,34.45
2019-06-26T02:12:38.045Z,32.17
2019-06-26T02:15:08.215Z,35.88
2019-06-26T02:17:37.529Z,27.80
2019-06-26T02:20:08.491Z,33.45
2019-06-26T02:22:37.906Z,32.50
2019-06-26T02:25:07.743Z,36.40
2019-06-26T02:27:37.080Z,34.58
2019-06-26T02:30:07.573Z,32.20
2019-06-26T02:32:37.984Z,33.48
2019-06-26T02:35:10.304Z,35.73
2019-06-26T02:37:38.955Z,37.90
2019-06-26T02:40:10.514Z,36.00
2019-06-26T02:42:40.103Z,34.55
2019-06-26T02:45:09.656Z,36.90
2019-06-26T02:47:38.991Z,34.27
2019-06-26T02:50:12.360Z,40.08
2019-06-26T02:52:41.686Z,37.67
2019-06-26T02:55:12.664Z,41.65
2019-06-26T02:57:42.036Z,44.83
2019-06-26T03:00:11.436Z,43.63
2019-06-26T03:02:40.746Z,40.55
2019-06-26T03:05:10.283Z,45.43
2019-06-26T03:07:39.585Z,46.10
2019-06-26T03:10:09.859Z,46.85
2019-06-26T03:12:40.245Z,51.70
2019-06-26T03:15:11.023Z,50.30
2019-06-26T03:17:54.238Z,47.33
2019-06-26T03:20:11.613Z,62.15
2019-06-26T03:22:40.907Z,58.52
2019-06-26T03:25:10.403Z,57.17
2019-06-26T03:27:39.723Z,52.25
2019-06-26T03:30:09.488Z,70.22
2019-06-26T03:32:38.939Z,66.30
2019-06-26T03:35:09.439Z,66.53
2019-06-26T03:37:38.764Z,69.55
2019-06-26T03:40:08.404Z,64.20
2019-06-26T03:42:37.733Z,62.83
2019-06-26T03:45:24.120Z,64.97
2019-06-26T03:47:38.800Z,65.12
2019-06-26T03:50:09.448Z,64.85
2019-06-26T03:52:38.768Z,68.90
2019-06-26T03:55:08.067Z,65.10
2019-06-26T03:57:37.585Z,67.85
2019-06-26T04:00:08.504Z,70.83
2019-06-26T04:02:37.923Z,71.57
2019-06-26T04:05:07.349Z,81.72
2019-06-26T04:07:36.674Z,78.22
2019-06-26T04:10:08.023Z,80.12
2019-06-26T04:12:37.353Z,89.32
2019-06-26T04:15:07.474Z,81.05
2019-06-26T04:17:36.809Z,82.72
2019-06-26T04:20:07.731Z,94.72
2019-06-26T04:22:37.062Z,90.85
2019-06-26T04:25:07.653Z,92.15
2019-06-26T04:27:36.990Z,98.47
2019-06-26T04:30:07.542Z,109.30
2019-06-26T04:32:36.887Z,104.15
2019-06-26T04:35:07.027Z,111.92
2019-06-26T04:37:36.603Z,106.20
2019-06-26T04:40:06.944Z,114.05
2019-06-26T04:42:36.271Z,114.65
2019-06-26T04:45:09.182Z,112.77
2019-06-26T04:47:38.478Z,125.30
2019-06-26T04:50:09.749Z,136.20
2019-06-26T04:52:39.072Z,120.45
2019-06-26T04:55:09.223Z,131.90
2019-06-26T04:57:38.620Z,128.80
2019-06-26T05:00:08.748Z,129.15
2019-06-26T05:02:38.059Z,131.75
2019-06-26T05:05:08.131Z,140.18
2019-06-26T05:07:37.435Z,144.97
2019-06-26T05:10:08.439Z,136.22
2019-06-26T05:12:37.762Z,140.90
2019-06-26T05:15:08.014Z,150.18
2019-06-26T05:17:37.688Z,160.63
2019-06-26T05:20:08.281Z,152.90
2019-06-26T05:22:38.861Z,157.05
2019-06-26T05:25:09.071Z,168.82
2019-06-26T05:27:38.469Z,171.93
2019-06-26T05:30:09.302Z,172.75
2019-06-26T05:32:38.622Z,166.07
2019-06-26T05:35:08.473Z,163.20
2019-06-26T05:37:37.816Z,157.80
2019-06-26T05:40:11.996Z,156.95
2019-06-26T05:42:41.321Z,146.57
2019-06-26T05:45:11.390Z,155.75
2019-06-26T05:47:40.783Z,150.27
2019-06-26T05:50:11.108Z,153.07
2019-06-26T05:52:42.834Z,152.62
2019-06-26T05:55:12.367Z,150.38
2019-06-26T05:57:42.223Z,161.62
2019-06-26T06:00:12.628Z,147.07
2019-06-26T06:02:41.948Z,147.20
2019-06-26T06:05:12.903Z,150.45
2019-06-26T06:07:42.238Z,151.63
2019-06-26T06:10:12.371Z,158.45
2019-06-26T06:12:41.811Z,147.13
2019-06-26T06:15:11.760Z,145.95
2019-06-26T06:17:41.114Z,149.72
2019-06-26T06:20:12.197Z,142.40
2019-06-26T06:22:41.560Z,145.68
2019-06-26T06:25:11.987Z,137.62
2019-06-26T06:27:41.304Z,143.65
2019-06-26T06:30:11.158Z,142.22
2019-06-26T06:32:40.558Z,140.70
2019-06-26T06:35:10.166Z,145.97
2019-06-26T06:37:39.483Z,139.22
2019-06-26T06:40:09.443Z,134.47
2019-06-26T06:42:38.773Z,131.72
2019-06-26T06:45:08.716Z,135.30
2019-06-26T06:47:38.046Z,141.95
2019-06-26T06:50:07.610Z,119.37
2019-06-26T06:52:36.951Z,133.80
2019-06-26T06:55:07.270Z,121.45
2019-06-26T06:57:36.826Z,122.00
2019-06-26T07:00:07.302Z,128.70
2019-06-26T07:02:36.719Z,117.28
2019-06-26T07:05:07.625Z,121.02
2019-06-26T07:07:37.958Z,108.32
2019-06-26T07:10:07.512Z,112.95
2019-06-26T07:12:36.834Z,115.97
2019-06-26T07:15:10.273Z,113.12
2019-06-26T07:17:39.679Z,110.95
2019-06-26T07:20:09.562Z,99.45
2019-06-26T07:22:38.924Z,107.25
2019-06-26T07:25:08.482Z,107.03
2019-06-26T07:27:37.813Z,98.20
2019-06-26T07:30:08.573Z,102.67
2019-06-26T07:32:37.875Z,104.03
2019-06-26T07:35:07.783Z,97.45
2019-06-26T07:37:37.085Z,93.30
2019-06-26T07:40:07.540Z,86.15
2019-06-26T07:42:36.890Z,84.77
2019-06-26T07:45:06.942Z,79.90
2019-06-26T07:47:43.116Z,78.05
2019-06-26T07:50:08.345Z,69.45
2019-06-26T07:52:37.729Z,68.52
2019-06-26T07:55:26.411Z,65.78
2019-06-26T07:57:55.771Z,64.58
2019-06-26T08:00:25.259Z,60.10
2019-06-26T08:02:54.568Z,62.83
2019-06-26T08:05:23.906Z,59.10
2019-06-26T08:07:53.197Z,66.30
2019-06-26T08:10:22.522Z,54.88
2019-06-26T08:12:53.191Z,60.83
2019-06-26T08:15:22.659Z,55.73
2019-06-26T08:18:00.461Z,54.65
2019-06-26T08:20:24.057Z,49.58
2019-06-26T08:22:53.359Z,49.48
2019-06-26T08:25:22.682Z,50.30
2019-06-26T08:27:52.007Z,47.88
2019-06-26T08:30:21.770Z,49.63
2019-06-26T08:32:51.113Z,42.50
2019-06-26T08:35:20.445Z,41.68
2019-06-26T08:37:49.856Z,38.92
2019-06-26T08:40:19.254Z,36.35
2019-06-26T08:42:48.590Z,36.38
2019-06-26T08:45:18.978Z,30.52
2019-06-26T08:47:48.284Z,25.25
2019-06-26T08:50:18.216Z,24.50
2019-06-26T08:52:47.568Z,23.25
2019-06-26T08:55:17.139Z,21.05
2019-06-26T08:57:46.477Z,24.55
2019-06-26T09:00:16.516Z,29.70
2019-06-26T09:02:45.834Z,18.45
2019-06-26T09:05:15.503Z,17.02
2019-06-26T09:07:44.831Z,16.73
2019-06-26T09:10:14.594Z,16.12
2019-06-26T09:12:43.929Z,17.12
2019-06-26T09:15:13.454Z,19.48
2019-06-26T09:17:42.747Z,18.75
2019-06-26T09:20:12.600Z,18.73
2019-06-26T09:22:41.896Z,19.65
2019-06-26T09:25:21.594Z,20.37
2019-06-26T09:27:43.333Z,14.80
2019-06-26T09:30:13.363Z,15.70
2019-06-26T09:32:42.665Z,17.30
2019-06-26T09:35:12.442Z,23.18
2019-06-26T09:37:41.748Z,19.87
2019-06-26T09:40:11.329Z,11.00
2019-06-26T09:42:40.644Z,16.32
2019-06-26T09:45:10.324Z,19.05
2019-06-26T09:47:39.619Z,15.03
2019-06-26T09:50:09.374Z,20.25
2019-06-26T09:52:38.665Z,16.23
2019-06-26T09:55:08.415Z,15.80
2019-06-26T09:57:38.879Z,13.28
2019-06-26T10:00:10.598Z,14.40
2019-06-26T10:02:40.081Z,16.27
2019-06-26T10:05:09.978Z,11.28
2019-06-26T10:07:40.284Z,12.88
2019-06-26T10:10:09.903Z,10.45
2019-06-26T10:12:39.216Z,21.20
2019-06-26T10:15:09.781Z,22.22
2019-06-26T10:17:39.231Z,9.83
2019-06-26T10:20:09.896Z,14.68
2019-06-26T10:22:39.184Z,11.38
2019-06-26T10:25:11.505Z,9.20
2019-06-26T10:27:40.474Z,9.05
2019-06-26T10:30:11.267Z,19.32
2019-06-26T10:32:40.567Z,12.28
2019-06-26T10:35:10.139Z,8.93
2019-06-26T10:37:39.511Z,10.03
2019-06-26T10:40:09.734Z,14.47
2019-06-26T10:42:39.071Z,9.68
2019-06-26T10:45:09.698Z,16.32
2019-06-26T10:47:40.024Z,12.78
2019-06-26T10:50:10.036Z,19.42
2019-06-26T10:52:43.106Z,18.12
2019-06-26T10:55:14.494Z,9.33
2019-06-26T10:57:43.781Z,17.55
2019-06-26T11:00:13.941Z,14.75
2019-06-26T11:02:43.237Z,12.63
2019-06-26T11:05:12.995Z,13.00
2019-06-26T11:07:42.362Z,13.62
2019-06-26T11:10:12.136Z,15.03
2019-06-26T11:12:41.446Z,17.82
2019-06-26T11:15:12.305Z,16.37
2019-06-26T11:17:41.596Z,12.07
2019-06-26T11:20:13.153Z,12.05
2019-06-26T11:22:42.493Z,11.28
2019-06-26T11:25:12.186Z,12.68
2019-06-26T11:27:41.547Z,10.90
2019-06-26T11:30:12.020Z,15.28
2019-06-26T11:32:41.366Z,10.10
2019-06-26T11:35:11.867Z,10.68
2019-06-26T11:37:41.308Z,9.73
2019-06-26T11:40:11.062Z,10.90
2019-06-26T11:42:40.388Z,12.55
2019-06-26T11:45:10.553Z,12.13
2019-06-26T11:47:39.900Z,11.97
2019-06-26T11:50:10.344Z,13.13
2019-06-26T11:52:39.663Z,10.75
2019-06-26T11:55:10.970Z,15.23
2019-06-26T11:57:40.439Z,13.30
2019-06-26T12:00:18.306Z,12.98
2019-06-26T12:02:47.644Z,11.43
2019-06-26T12:05:17.572Z,14.85
2019-06-26T12:07:46.892Z,11.57
2019-06-26T12:10:17.622Z,10.75
2019-06-26T12:12:47.918Z,14.40
2019-06-26T12:15:18.699Z,10.72
2019-06-26T12:17:48.013Z,12.73
2019-06-26T12:20:19.822Z,12.00
2019-06-26T12:22:48.852Z,12.65
2019-06-26T12:25:18.224Z,12.30
2019-06-26T12:27:47.545Z,15.55
2019-06-26T12:30:16.973Z,12.05
2019-06-26T12:33:01.573Z,10.20
2019-06-26T12:35:17.434Z,10.13
2019-06-26T12:37:46.712Z,10.00
2019-06-26T12:40:16.718Z,15.38
2019-06-26T12:42:46.026Z,10.68
2019-06-26T12:45:15.977Z,18.25
2019-06-26T12:47:45.336Z,19.52
2019-06-26T12:50:20.772Z,16.20
2019-06-26T12:52:47.815Z,14.68
2019-06-26T12:55:17.177Z,11.70
2019-06-26T12:57:46.567Z,18.17
2019-06-26T13:00:16.466Z,15.43
2019-06-26T13:02:45.788Z,9.65
2019-06-26T13:05:16.024Z,14.40
2019-06-26T13:07:45.325Z,13.55
2019-06-26T13:10:14.966Z,15.13
2019-06-26T13:12:45.934Z,10.28
2019-06-26T13:15:15.517Z,13.45
2019-06-26T13:17:44.849Z,11.10
2019-06-26T13:20:16.634Z,11.55
2019-06-26T13:22:46.076Z,10.63
2019-06-26T13:25:16.252Z,17.05
2019-06-26T13:27:45.761Z,18.77
2019-06-26T13:30:16.782Z,15.00
2019-06-26T13:32:46.123Z,10.48
2019-06-26T13:35:15.707Z,16.20
2019-06-26T13:37:45.003Z,9.43
2019-06-26T13:40:14.319Z,12.30
2019-06-26T13:42:43.616Z,14.00
2019-06-26T13:45:13.009Z,15.68
2019-06-26T13:47:42.367Z,13.78
2019-06-26T13:50:12.004Z,12.58
2019-06-26T13:52:41.339Z,13.00
2019-06-26T13:55:11.026Z,16.27
2019-06-26T13:57:40.340Z,19.52
2019-06-26T14:00:11.602Z,16.42
2019-06-26T14:02:40.919Z,14.15
2019-06-26T14:05:11.654Z,14.98
2019-06-26T14:07:40.962Z,14.18
2019-06-26T14:10:11.539Z,17.80
2019-06-26T14:12:40.830Z,12.28
2019-06-26T14:15:14.291Z,14.05
2019-06-26T14:17:43.639Z,20.95
2019-06-26T14:20:13.516Z,16.15
2019-06-26T14:22:42.828Z,15.35
2019-06-26T14:25:13.287Z,14.55
2019-06-26T14:27:42.685Z,13.03
2019-06-26T14:30:12.686Z,14.25
2019-06-26T14:32:41.998Z,14.23
2019-06-26T14:35:11.464Z,6.15
2019-06-26T14:37:40.762Z,8.93
2019-06-26T14:40:10.730Z,9.23
2019-06-26T14:42:40.043Z,10.05
2019-06-26T14:45:11.630Z,10.68
2019-06-26T14:47:41.036Z,10.68
2019-06-26T14:50:11.784Z,12.18
2019-06-26T14:52:41.113Z,13.13
2019-06-26T14:55:10.917Z,7.70
2019-06-26T14:57:40.431Z,11.10
2019-06-26T15:00:11.822Z,10.70
2019-06-26T15:02:41.151Z,9.55
2019-06-26T15:05:10.887Z,10.45
2019-06-26T15:07:40.198Z,8.93
2019-06-26T15:10:10.056Z,10.45
2019-06-26T15:12:39.367Z,12.43
2019-06-26T15:15:09.219Z,9.63
2019-06-26T15:17:38.550Z,8.68
2019-06-26T15:20:09.365Z,9.10
2019-06-26T15:22:38.692Z,8.38
2019-06-26T15:25:08.544Z,9.80
2019-06-26T15:27:37.864Z,8.78
2019-06-26T15:30:08.172Z,6.83
2019-06-26T15:32:37.607Z,8.10
2019-06-26T15:35:07.663Z,5.75
2019-06-26T15:37:37.079Z,16.17
2019-06-26T15:40:07.309Z,8.38
2019-06-26T15:42:37.552Z,5.70
2019-06-26T15:45:07.756Z,12.60
2019-06-26T15:47:37.087Z,7.00
2019-06-26T15:50:10.676Z,11.28
2019-06-26T15:52:38.635Z,10.43
2019-06-26T15:55:09.170Z,11.75
2019-06-26T15:57:38.471Z,8.90
2019-06-26T16:00:08.466Z,10.72
2019-06-26T16:02:37.829Z,6.97
2019-06-26T16:05:08.860Z,7.80
2019-06-26T16:07:38.152Z,4.05
2019-06-26T16:10:08.011Z,12.55
2019-06-26T16:12:37.459Z,6.55
2019-06-26T16:15:07.287Z,7.70
2019-06-26T16:17:54.713Z,5.62
2019-06-26T16:20:24.027Z,6.15
2019-06-26T16:22:53.359Z,8.68
2019-06-26T16:25:22.694Z,10.95
2019-06-26T16:28:04.588Z,4.53
2019-06-26T16:30:23.144Z,8.90
2019-06-26T16:32:52.459Z,9.28
2019-06-26T16:35:21.770Z,6.87
2019-06-26T16:37:51.152Z,8.95
2019-06-26T16:40:20.481Z,10.68
2019-06-26T16:42:49.875Z,5.80
2019-06-26T16:45:20.977Z,8.25
2019-06-26T16:47:50.308Z,14.18
2019-06-26T16:50:19.639Z,13.08
2019-06-26T16:52:50.129Z,12.88
2019-06-26T16:55:19.732Z,7.00
2019-06-26T16:57:49.428Z,7.50
2019-06-26T17:00:19.183Z,10.15
2019-06-26T17:02:48.567Z,8.13
2019-06-26T17:05:17.901Z,5.08
2019-06-26T17:07:47.296Z,8.33
2019-06-26T17:10:16.846Z,8.03
2019-06-26T17:12:46.137Z,4.35
2019-06-26T17:15:15.702Z,6.40
2019-06-26T17:17:45.390Z,6.40
2019-06-26T17:20:15.129Z,5.60
2019-06-26T17:22:44.439Z,7.50
2019-06-26T17:25:14.274Z,10.00
2019-06-26T17:27:44.136Z,7.37
2019-06-26T17:30:13.704Z,7.03
2019-06-26T17:32:43.007Z,9.65
2019-06-26T17:35:12.568Z,10.88
2019-06-26T17:37:41.970Z,10.85
2019-06-26T17:40:11.371Z,11.68
2019-06-26T17:42:40.695Z,6.62
2019-06-26T17:45:10.169Z,13.68
2019-06-26T17:47:39.475Z,12.13
2019-06-26T17:50:09.209Z,7.90
2019-06-26T17:52:38.818Z,7.50
2019-06-26T17:55:08.764Z,6.33
2019-06-26T17:57:51.531Z,6.30
2019-06-26T18:00:23.965Z,8.10
2019-06-26T18:02:53.357Z,12.60
2019-06-26T18:05:22.658Z,5.67
2019-06-26T18:07:51.955Z,9.10
2019-06-26T18:10:21.268Z,6.12
2019-06-26T18:12:50.565Z,7.78
2019-06-26T18:15:20.080Z,7.70
2019-06-26T18:17:49.374Z,10.63
2019-06-26T18:20:18.891Z,10.23
2019-06-26T18:22:48.211Z,10.30
2019-06-26T18:25:17.591Z,6.55
2019-06-26T18:27:46.936Z,7.33
2019-06-26T18:30:16.464Z,11.68
2019-06-26T18:32:45.827Z,7.03
2019-06-26T18:35:15.887Z,6.35
2019-06-26T18:37:45.195Z,8.65
2019-06-26T18:40:15.468Z,7.42
2019-06-26T18:42:45.973Z,10.40
2019-06-26T18:45:15.643Z,6.80
2019-06-26T18:47:45.019Z,5.75
2019-06-26T18:50:14.572Z,6.40
2019-06-26T18:52:43.939Z,4.17
2019-06-26T18:55:13.317Z,7.40
2019-06-26T18:57:42.654Z,11.95
2019-06-26T19:00:12.621Z,16.25
2019-06-26T19:02:41.907Z,14.93
2019-06-26T19:05:15.718Z,11.25
2019-06-26T19:07:45.068Z,7.00
2019-06-26T19:10:15.408Z,15.13
2019-06-26T19:12:44.699Z,11.48
2019-06-26T19:15:14.964Z,13.35
2019-06-26T19:17:44.369Z,11.10
2019-06-26T19:20:14.211Z,6.05
2019-06-26T19:22:46.580Z,6.90
2019-06-26T19:25:15.130Z,11.80
2019-06-26T19:27:44.422Z,9.60
2019-06-26T19:30:15.679Z,6.78
2019-06-26T19:32:44.996Z,6.85
2019-06-26T19:35:21.347Z,8.93
2019-06-26T19:37:45.322Z,8.55
2019-06-26T19:40:15.355Z,14.78
2019-06-26T19:42:44.668Z,12.40
2019-06-26T19:45:14.903Z,10.50
2019-06-26T19:47:44.219Z,10.03
2019-06-26T19:50:13.896Z,7.12
2019-06-26T19:52:43.208Z,6.50
2019-06-26T19:55:12.789Z,8.18
2019-06-26T19:57:42.072Z,5.70
2019-06-26T20:00:12.326Z,6.45
2019-06-26T20:02:41.629Z,5.72
2019-06-26T20:05:11.118Z,8.03
2019-06-26T20:07:40.543Z,8.78
2019-06-26T20:10:10.675Z,6.78
2019-06-26T20:12:40.013Z,5.50
2019-06-26T20:15:10.642Z,11.88
2019-06-26T20:17:39.991Z,10.72
2019-06-26T20:20:09.216Z,5.20
2019-06-26T20:22:38.686Z,9.53
2019-06-26T20:25:09.690Z,4.72
2019-06-26T20:27:39.012Z,9.63
2019-06-26T20:30:10.198Z,8.48
2019-06-26T20:32:40.742Z,8.30
2019-06-26T20:35:10.147Z,7.08
2019-06-26T20:37:39.454Z,6.75
2019-06-26T20:40:09.265Z,13.10
2019-06-26T20:42:38.576Z,6.62
2019-06-26T20:45:09.679Z,5.35
2019-06-26T20:47:39.000Z,9.60
2019-06-26T20:50:08.386Z,6.65
2019-06-26T20:52:37.743Z,12.47
2019-06-26T20:55:08.411Z,10.53
2019-06-26T20:57:37.771Z,8.35
2019-06-26T21:00:09.462Z,11.08
2019-06-26T21:02:42.222Z,9.03
2019-06-26T21:05:11.802Z,10.20
2019-06-26T21:07:41.219Z,14.43
2019-06-26T21:10:11.055Z,6.97
2019-06-26T21:12:40.366Z,11.50
2019-06-26T21:15:10.406Z,10.60
2019-06-26T21:17:39.718Z,11.55
2019-06-26T21:20:09.517Z,12.05
2019-06-26T21:22:38.807Z,6.58
2019-06-26T21:25:19.022Z,7.85
2019-06-26T21:27:43.411Z,6.83
2019-06-26T21:30:12.987Z,11.45
2019-06-26T21:32:42.290Z,17.80
2019-06-26T21:35:11.743Z,14.47
2019-06-26T21:37:41.046Z,9.58
2019-06-26T21:40:10.707Z,10.18
2019-06-26T21:42:40.016Z,13.50
2019-06-26T21:45:09.616Z,6.75
2019-06-26T21:47:39.068Z,10.90
2019-06-26T21:50:08.662Z,8.33
2019-06-26T21:52:37.999Z,9.88
2019-06-26T21:55:08.027Z,8.00
2019-06-26T21:57:55.091Z,9.60
2019-06-26T22:00:42.256Z,10.48
2019-06-26T22:03:30.589Z,9.20
2019-06-26T22:06:18.116Z,9.85
2019-06-26T22:09:08.255Z,15.50
2019-06-26T22:11:39.185Z,16.10
2019-06-26T22:14:08.889Z,9.58
2019-06-26T22:16:38.199Z,9.03
2019-06-26T22:19:07.514Z,5.25
2019-06-26T22:21:36.827Z,8.80
2019-06-26T22:24:06.137Z,11.93
2019-06-26T22:26:35.447Z,8.73
2019-06-26T22:29:05.015Z,12.03
2019-06-26T22:31:34.332Z,13.38
2019-06-26T22:34:03.663Z,9.23
2019-06-26T22:36:32.976Z,10.10
2019-06-26T22:39:02.275Z,12.00
2019-06-26T22:41:33.208Z,14.65
2019-06-26T22:44:02.543Z,9.10
2019-06-26T22:46:31.831Z,18.98
2019-06-26T22:49:01.147Z,10.70
2019-06-26T22:51:30.451Z,8.90
2019-06-26T22:53:59.748Z,14.10
2019-06-26T22:56:29.092Z,10.78
2019-06-26T22:58:58.377Z,9.28
2019-06-26T23:01:27.691Z,13.28
2019-06-26T23:03:57.000Z,16.70
2019-06-26T23:06:26.327Z,17.07
2019-06-26T23:08:55.627Z,14.50
2019-06-26T23:11:24.943Z,7.97
2019-06-26T23:13:54.264Z,7.58
2019-06-26T23:16:23.551Z,12.43
2019-06-26T23:18:53.240Z,8.60
2019-06-26T23:21:22.574Z,6.50
2019-06-26T23:23:51.887Z,6.62
2019-06-26T23:26:24.340Z,8.13
2019-06-26T23:28:52.189Z,12.23
2019-06-26T23:31:21.495Z,7.45
2019-06-26T23:33:50.824Z,9.78
2019-06-26T23:36:20.114Z,6.10
2019-06-26T23:38:49.414Z,9.75
2019-06-26T23:41:18.729Z,7.80
2019-06-26T23:43:48.024Z,10.13
2019-06-26T23:46:17.498Z,9.88
2019-06-26T23:48:46.815Z,10.23
2019-06-26T23:51:16.116Z,10.13
2019-06-26T23:53:45.422Z,15.00
2019-06-26T23:56:14.719Z,11.33
2019-06-26T23:58:44.086Z,16.37
